Floresville, TX

7:26 PM CDT on September 18, 2014 (GMT -0500)
Randolph Air Force Base | Change Station
CLOSE
Current Station
Airport
Location: Randolph AFB,
Elevation: 761 ft
Nearby Weather Stations

Elev 761 ft 29.53 °N, 98.28 °W | Updated 12 minutes ago

Mostly Cloudy
Mostly Cloudy
79 °F
Feels Like 79 °F
N
12
Wind Variable Wind from East

Today
High -- | Low -- °F
--% Chance of Precip.
Yesterday
High -- | Low -- °F
Precip. -- in
7:19 AM 7:34 PM
Waning Crescent, 23% visible
Pressure 29.81 in
Visibility 10.0 miles
Clouds Few 4800 ft
Mostly Cloudy 8000 ft
Overcast 12000 ft
Dew Point 72 °F
Humidity 78%
Rainfall 0.18 in
Snow Depth Not available.
UV 0 out of 12
Pollen 7.80 out of 12
Ozone Good
PM2.5 Good
Flu Activity Not available.
SPECI KRND 190014Z AUTO 09010KT 10SM FEW048 BKN080 OVC120 26/22 A2981 RMK AO2 RAE0010DZB0010E0014

More Conditions Fewer Conditions

Pressure 29.81 in
Visibility 10.0 miles
Clouds Few 4800 ft
Mostly Cloudy 8000 ft
Overcast 12000 ft
Dew Point 72 °F
Humidity 78%
Rainfall 0.18 in
Snow Depth Not available.
UV 0 out of 12
Pollen 7.80 out of 12
Ozone Good
PM2.5 Good
Flu Activity Not available.
SPECI KRND 190014Z AUTO 09010KT 10SM FEW048 BKN080 OVC120 26/22 A2981 RMK AO2 RAE0010DZB0010E0014

More Conditions Fewer Conditions

10-Day Weather Forecast

Almanac

Astronomy

Sep. 18, 2014 Rise Set
Actual Time 7:19 AM CDT 7:34 PM CDT
Civil Twilight 6:55 AM CDT 7:57 PM CDT
Nautical Twilight 6:27 AM CDT 8:25 PM CDT
Astronomical Twilight 5:59 AM CDT 8:53 PM CDT
Moon 2:30 AM CDT (9/18) 4:09 PM CDT (9/18)
Length of Visible Light 13h 02m
Length of Day
12h 14m
Tomorrow will be 1m 43s shorter.
Waning Crescent, 23% of the Moon is Illuminated
Today
Waning Crescent
Sep 24
New
Oct 1
First Quarter
Oct 8
Full
Oct 15
Last Quarter

Today's Extremes

State Highs State Lows

Community

WunderPhotos

Upload Photos

1,754,501 photos uploaded!

WunderBlogs® & News

Nearby

Air Quality

  Air Quality AQ Index Pollutant
Yesterday Good
OZONE
Yesterday Good
PM2.5
Current Good
PM2.5
Current Good
OZONE
Thursday Good
OZONE
Thursday Good
PM10
Friday Good
PM10
Friday Good
OZONE
Saturday Good
OZONE
Saturday Good
PM10
Sunday Good
OZONE
Sunday Good
PM10

Snow Depth

Station Depth Elevation
No new snow has been reported.

Earthquake Activity

City Distance Mag. Time & Date
No recent earthquake activity has been reported nearby.
Minimum magnitude displayed is 2.5.

Coastal Water Temperatures

Place Temperature
No Stations Reporting

Nearby Weather Stations